sensor_id;sensor_type;location;lat;lon;timestamp;pressure;altitude;pressure_sealevel;temperature
45034;BMP280;30771;47.988;-4.186;2023-05-10T06:02:33;99276.03;;;13.14
45034;BMP280;30771;47.988;-4.186;2023-05-10T06:04:58;99273.44;;;13.19
45034;BMP280;30771;47.988;-4.186;2023-05-10T06:07:24;99273.91;;;13.16
45034;BMP280;30771;47.988;-4.186;2023-05-10T06:09:49;99281.38;;;13.19
45034;BMP280;30771;47.988;-4.186;2023-05-10T06:12:14;99272.81;;;13.12
45034;BMP280;30771;47.988;-4.186;2023-05-10T06:14:39;99292.13;;;13.13
45034;BMP280;30771;47.988;-4.186;2023-05-10T06:17:05;99306.59;;;13.10
45034;BMP280;30771;47.988;-4.186;2023-05-10T06:19:30;99330.84;;;13.02
45034;BMP280;30771;47.988;-4.186;2023-05-10T06:21:55;99314.25;;;12.90
45034;BMP280;30771;47.988;-4.186;2023-05-10T06:24:21;99320.63;;;12.89
45034;BMP280;30771;47.988;-4.186;2023-05-10T06:26:46;99317.34;;;12.82
45034;BMP280;30771;47.988;-4.186;2023-05-10T06:29:11;99326.63;;;12.85
45034;BMP280;30771;47.988;-4.186;2023-05-10T06:31:37;99336.00;;;12.76
45034;BMP280;30771;47.988;-4.186;2023-05-10T06:34:02;99330.41;;;12.72
45034;BMP280;30771;47.988;-4.186;2023-05-10T06:36:27;99342.34;;;12.75
45034;BMP280;30771;47.988;-4.186;2023-05-10T06:38:52;99340.97;;;12.72
45034;BMP280;30771;47.988;-4.186;2023-05-10T06:41:18;99330.09;;;12.69
45034;BMP280;30771;47.988;-4.186;2023-05-10T06:43:43;99327.97;;;12.71
45034;BMP280;30771;47.988;-4.186;2023-05-10T06:46:08;99313.75;;;12.72
45034;BMP280;30771;47.988;-4.186;2023-05-10T06:48:34;99301.41;;;12.77
45034;BMP280;30771;47.988;-4.186;2023-05-10T06:50:59;99299.16;;;12.86
45034;BMP280;30771;47.988;-4.186;2023-05-10T06:53:24;99292.38;;;12.90
45034;BMP280;30771;47.988;-4.186;2023-05-10T06:55:50;99287.09;;;12.90
45034;BMP280;30771;47.988;-4.186;2023-05-10T06:58:15;99290.88;;;12.99
45034;BMP280;30771;47.988;-4.186;2023-05-10T07:00:40;99287.38;;;13.15
45034;BMP280;30771;47.988;-4.186;2023-05-10T07:03:06;99269.81;;;13.25
45034;BMP280;30771;47.988;-4.186;2023-05-10T07:05:31;99279.69;;;13.35
45034;BMP280;30771;47.988;-4.186;2023-05-10T07:07:56;99271.06;;;13.45
45034;BMP280;30771;47.988;-4.186;2023-05-10T07:10:21;99261.09;;;13.52
45034;BMP280;30771;47.988;-4.186;2023-05-10T07:12:47;99265.41;;;13.58
45034;BMP280;30771;47.988;-4.186;2023-05-10T07:15:12;99267.84;;;13.64
45034;BMP280;30771;47.988;-4.186;2023-05-10T07:17:37;99263.56;;;13.85
45034;BMP280;30771;47.988;-4.186;2023-05-10T07:20:03;99253.31;;;13.98
45034;BMP280;30771;47.988;-4.186;2023-05-10T07:22:28;99262.47;;;14.12
45034;BMP280;30771;47.988;-4.186;2023-05-10T07:24:54;99264.31;;;14.12
45034;BMP280;30771;47.988;-4.186;2023-05-10T07:27:19;99272.75;;;14.09
45034;BMP280;30771;47.988;-4.186;2023-05-10T07:29:44;99291.97;;;13.99
45034;BMP280;30771;47.988;-4.186;2023-05-10T07:32:10;99294.78;;;13.88
45034;BMP280;30771;47.988;-4.186;2023-05-10T07:34:35;99307.19;;;13.82
45034;BMP280;30771;47.988;-4.186;2023-05-10T07:37:01;99309.22;;;13.75
45034;BMP280;30771;47.988;-4.186;2023-05-10T07:39:27;99302.88;;;13.76
45034;BMP280;30771;47.988;-4.186;2023-05-10T07:41:52;99311.38;;;13.78
45034;BMP280;30771;47.988;-4.186;2023-05-10T07:44:17;99312.22;;;13.84
45034;BMP280;30771;47.988;-4.186;2023-05-10T07:46:43;99321.81;;;13.90
45034;BMP280;30771;47.988;-4.186;2023-05-10T07:49:08;99306.41;;;14.13
45034;BMP280;30771;47.988;-4.186;2023-05-10T07:51:33;99298.75;;;14.17
45034;BMP280;30771;47.988;-4.186;2023-05-10T07:53:59;99301.69;;;14.20
45034;BMP280;30771;47.988;-4.186;2023-05-10T07:56:27;99290.81;;;14.17
45034;BMP280;30771;47.988;-4.186;2023-05-10T07:58:53;99300.56;;;14.11
45034;BMP280;30771;47.988;-4.186;2023-05-10T08:01:19;99304.84;;;14.17
45034;BMP280;30771;47.988;-4.186;2023-05-10T08:03:44;99292.25;;;14.34
45034;BMP280;30771;47.988;-4.186;2023-05-10T08:06:09;99273.81;;;14.45
45034;BMP280;30771;47.988;-4.186;2023-05-10T08:08:35;99271.25;;;14.65
45034;BMP280;30771;47.988;-4.186;2023-05-10T08:11:00;99251.97;;;14.74
45034;BMP280;30771;47.988;-4.186;2023-05-10T08:13:25;99229.31;;;15.03
45034;BMP280;30771;47.988;-4.186;2023-05-10T08:15:50;99199.41;;;15.18
45034;BMP280;30771;47.988;-4.186;2023-05-10T08:18:16;99156.97;;;15.28
45034;BMP280;30771;47.988;-4.186;2023-05-10T08:20:41;99151.94;;;15.56
45034;BMP280;30771;47.988;-4.186;2023-05-10T08:23:06;99132.84;;;15.65
45034;BMP280;30771;47.988;-4.186;2023-05-10T08:25:31;99099.69;;;15.62
45034;BMP280;30771;47.988;-4.186;2023-05-10T08:27:57;99071.53;;;15.71
45034;BMP280;30771;47.988;-4.186;2023-05-10T08:30:22;99045.50;;;15.83
45034;BMP280;30771;47.988;-4.186;2023-05-10T08:32:47;99023.50;;;15.73
45034;BMP280;30771;47.988;-4.186;2023-05-10T08:35:13;99032.75;;;15.75
45034;BMP280;30771;47.988;-4.186;2023-05-10T08:37:38;99045.78;;;15.77
45034;BMP280;30771;47.988;-4.186;2023-05-10T08:40:03;99039.66;;;15.81
45034;BMP280;30771;47.988;-4.186;2023-05-10T08:42:30;99032.03;;;15.54
45034;BMP280;30771;47.988;-4.186;2023-05-10T08:44:59;99023.00;;;15.60
45034;BMP280;30771;47.988;-4.186;2023-05-10T08:47:25;99002.00;;;15.79
45034;BMP280;30771;47.988;-4.186;2023-05-10T08:49:50;98989.75;;;15.83
45034;BMP280;30771;47.988;-4.186;2023-05-10T08:52:16;98986.22;;;15.98
45034;BMP280;30771;47.988;-4.186;2023-05-10T08:54:42;98988.38;;;15.96
45034;BMP280;30771;47.988;-4.186;2023-05-10T08:57:07;98984.59;;;16.02
45034;BMP280;30771;47.988;-4.186;2023-05-10T08:59:33;98966.16;;;16.25
45034;BMP280;30771;47.988;-4.186;2023-05-10T09:01:58;98970.25;;;16.46
45034;BMP280;30771;47.988;-4.186;2023-05-10T09:04:24;98970.72;;;16.53
45034;BMP280;30771;47.988;-4.186;2023-05-10T09:06:49;98985.28;;;16.61
45034;BMP280;30771;47.988;-4.186;2023-05-10T09:09:15;99023.41;;;16.46
45034;BMP280;30771;47.988;-4.186;2023-05-10T09:11:40;99024.22;;;16.47
45034;BMP280;30771;47.988;-4.186;2023-05-10T09:14:06;99004.06;;;16.36
45034;BMP280;30771;47.988;-4.186;2023-05-10T09:16:31;99010.56;;;16.15
45034;BMP280;30771;47.988;-4.186;2023-05-10T09:18:57;99015.91;;;16.10
45034;BMP280;30771;47.988;-4.186;2023-05-10T09:21:22;99004.75;;;16.08
45034;BMP280;30771;47.988;-4.186;2023-05-10T09:23:47;99017.06;;;15.89
45034;BMP280;30771;47.988;-4.186;2023-05-10T09:26:13;99017.06;;;15.89
45034;BMP280;30771;47.988;-4.186;2023-05-10T09:28:54;99009.06;;;15.99
45034;BMP280;30771;47.988;-4.186;2023-05-10T09:31:20;99021.50;;;16.08
45034;BMP280;30771;47.988;-4.186;2023-05-10T09:33:49;99028.31;;;16.24
45034;BMP280;30771;47.988;-4.186;2023-05-10T09:36:15;99047.66;;;16.35
45034;BMP280;30771;47.988;-4.186;2023-05-10T09:38:50;99038.72;;;16.21
45034;BMP280;30771;47.988;-4.186;2023-05-10T09:41:22;99047.44;;;16.26
45034;BMP280;30771;47.988;-4.186;2023-05-10T09:43:48;99036.13;;;16.49
45034;BMP280;30771;47.988;-4.186;2023-05-10T09:46:17;99042.06;;;16.75
45034;BMP280;30771;47.988;-4.186;2023-05-10T09:48:44;99102.25;;;16.94
45034;BMP280;30771;47.988;-4.186;2023-05-10T09:51:10;99142.97;;;16.90
45034;BMP280;30771;47.988;-4.186;2023-05-10T09:53:35;99164.06;;;16.76
45034;BMP280;30771;47.988;-4.186;2023-05-10T09:56:01;99130.03;;;16.73
45034;BMP280;30771;47.988;-4.186;2023-05-10T09:58:26;99123.53;;;16.51
45034;BMP280;30771;47.988;-4.186;2023-05-10T10:00:52;99090.97;;;16.30
45034;BMP280;30771;47.988;-4.186;2023-05-10T10:03:21;99095.53;;;16.15
45034;BMP280;30771;47.988;-4.186;2023-05-10T10:05:48;99071.59;;;16.25
45034;BMP280;30771;47.988;-4.186;2023-05-10T10:08:14;99065.13;;;16.41
45034;BMP280;30771;47.988;-4.186;2023-05-10T10:10:39;99071.25;;;16.41
45034;BMP280;30771;47.988;-4.186;2023-05-10T10:13:05;99089.75;;;16.03
45034;BMP280;30771;47.988;-4.186;2023-05-10T10:15:30;99090.28;;;16.05
45034;BMP280;30771;47.988;-4.186;2023-05-10T10:17:56;99101.13;;;16.13
45034;BMP280;30771;47.988;-4.186;2023-05-10T10:20:22;99075.75;;;16.46
45034;BMP280;30771;47.988;-4.186;2023-05-10T10:22:48;99123.81;;;16.49
45034;BMP280;30771;47.988;-4.186;2023-05-10T10:25:17;99141.66;;;16.34
45034;BMP280;30771;47.988;-4.186;2023-05-10T10:30:31;99112.66;;;15.79
45034;BMP280;30771;47.988;-4.186;2023-05-10T10:35:49;99062.06;;;16.19
45034;BMP280;30771;47.988;-4.186;2023-05-10T10:38:15;99054.94;;;16.58
45034;BMP280;30771;47.988;-4.186;2023-05-10T10:40:40;99053.47;;;17.09
45034;BMP280;30771;47.988;-4.186;2023-05-10T10:43:23;99110.25;;;17.28
45034;BMP280;30771;47.988;-4.186;2023-05-10T10:46:12;99129.66;;;17.57
45034;BMP280;30771;47.988;-4.186;2023-05-10T10:48:37;99191.72;;;17.53
45034;BMP280;30771;47.988;-4.186;2023-05-10T10:51:03;99238.44;;;17.35
45034;BMP280;30771;47.988;-4.186;2023-05-10T10:53:28;99246.97;;;17.32
45034;BMP280;30771;47.988;-4.186;2023-05-10T10:56:09;99215.88;;;17.28
45034;BMP280;30771;47.988;-4.186;2023-05-10T10:58:35;99248.75;;;17.03
45034;BMP280;30771;47.988;-4.186;2023-05-10T11:01:12;99219.44;;;17.13
45034;BMP280;30771;47.988;-4.186;2023-05-10T11:03:38;99192.28;;;17.16
45034;BMP280;30771;47.988;-4.186;2023-05-10T11:06:03;99180.63;;;17.07
45034;BMP280;30771;47.988;-4.186;2023-05-10T11:08:30;99193.28;;;16.81
45034;BMP280;30771;47.988;-4.186;2023-05-10T11:13:45;99143.38;;;16.63
45034;BMP280;30771;47.988;-4.186;2023-05-10T11:16:24;99192.63;;;17.00
45034;BMP280;30771;47.988;-4.186;2023-05-10T11:19:03;99250.56;;;17.13
45034;BMP280;30771;47.988;-4.186;2023-05-10T11:21:30;99378.50;;;17.06
45034;BMP280;30771;47.988;-4.186;2023-05-10T11:23:56;99366.81;;;16.97
45034;BMP280;30771;47.988;-4.186;2023-05-10T11:26:23;99348.75;;;16.99
45034;BMP280;30771;47.988;-4.186;2023-05-10T11:28:49;99338.38;;;16.98
45034;BMP280;30771;47.988;-4.186;2023-05-10T11:31:18;99306.13;;;17.09
45034;BMP280;30771;47.988;-4.186;2023-05-10T11:33:48;99279.72;;;17.28
45034;BMP280;30771;47.988;-4.186;2023-05-10T11:36:17;99264.28;;;17.25
45034;BMP280;30771;47.988;-4.186;2023-05-10T11:38:43;99239.84;;;17.23
45034;BMP280;30771;47.988;-4.186;2023-05-10T11:41:09;99271.53;;;17.09
45034;BMP280;30771;47.988;-4.186;2023-05-10T11:43:35;99240.72;;;17.13
45034;BMP280;30771;47.988;-4.186;2023-05-10T11:46:02;99233.72;;;17.22
45034;BMP280;30771;47.988;-4.186;2023-05-10T11:48:29;99161.91;;;17.22
45034;BMP280;30771;47.988;-4.186;2023-05-10T11:50:54;99094.59;;;17.22
45034;BMP280;30771;47.988;-4.186;2023-05-10T11:53:20;99064.38;;;17.13
45034;BMP280;30771;47.988;-4.186;2023-05-10T11:55:45;99040.75;;;17.06
45034;BMP280;30771;47.988;-4.186;2023-05-10T11:58:10;99019.28;;;16.98
45034;BMP280;30771;47.988;-4.186;2023-05-10T12:00:35;99011.13;;;16.89
45034;BMP280;30771;47.988;-4.186;2023-05-10T12:03:01;99009.09;;;16.76
45034;BMP280;30771;47.988;-4.186;2023-05-10T12:05:26;99023.34;;;16.56
45034;BMP280;30771;47.988;-4.186;2023-05-10T12:07:52;99027.97;;;16.36
45034;BMP280;30771;47.988;-4.186;2023-05-10T12:10:24;99037.53;;;16.42
45034;BMP280;30771;47.988;-4.186;2023-05-10T12:12:52;99038.28;;;16.47
45034;BMP280;30771;47.988;-4.186;2023-05-10T12:15:20;99051.25;;;16.54
45034;BMP280;30771;47.988;-4.186;2023-05-10T12:17:46;99045.59;;;16.65
45034;BMP280;30771;47.988;-4.186;2023-05-10T12:20:19;99036.63;;;16.90
45034;BMP280;30771;47.988;-4.186;2023-05-10T12:23:03;99111.94;;;16.80
45034;BMP280;30771;47.988;-4.186;2023-05-10T12:25:33;99111.41;;;16.83
45034;BMP280;30771;47.988;-4.186;2023-05-10T12:28:00;99109.88;;;17.11
45034;BMP280;30771;47.988;-4.186;2023-05-10T12:30:32;99149.69;;;17.21
45034;BMP280;30771;47.988;-4.186;2023-05-10T12:33:06;99157.53;;;17.36
45034;BMP280;30771;47.988;-4.186;2023-05-10T12:35:32;99224.78;;;17.47
45034;BMP280;30771;47.988;-4.186;2023-05-10T12:37:58;99250.53;;;17.56
45034;BMP280;30771;47.988;-4.186;2023-05-10T12:40:23;99254.69;;;17.67
45034;BMP280;30771;47.988;-4.186;2023-05-10T12:42:49;99264.53;;;17.72
45034;BMP280;30771;47.988;-4.186;2023-05-10T12:45:14;99283.78;;;17.87
45034;BMP280;30771;47.988;-4.186;2023-05-10T12:47:39;99375.00;;;18.08
45034;BMP280;30771;47.988;-4.186;2023-05-10T12:50:05;99481.03;;;18.06
45034;BMP280;30771;47.988;-4.186;2023-05-10T12:52:31;99440.78;;;18.07
45034;BMP280;30771;47.988;-4.186;2023-05-10T12:54:56;99450.63;;;18.12
45034;BMP280;30771;47.988;-4.186;2023-05-10T12:57:22;99471.16;;;18.11
45034;BMP280;30771;47.988;-4.186;2023-05-10T12:59:47;99502.94;;;17.98
45034;BMP280;30771;47.988;-4.186;2023-05-10T13:02:13;99460.66;;;17.81
45034;BMP280;30771;47.988;-4.186;2023-05-10T13:04:38;99407.09;;;17.88
45034;BMP280;30771;47.988;-4.186;2023-05-10T13:07:03;99391.03;;;18.03
45034;BMP280;30771;47.988;-4.186;2023-05-10T13:09:28;99421.56;;;17.77
45034;BMP280;30771;47.988;-4.186;2023-05-10T13:11:54;99485.06;;;17.50
45034;BMP280;30771;47.988;-4.186;2023-05-10T13:14:19;99535.41;;;17.26
45034;BMP280;30771;47.988;-4.186;2023-05-10T13:16:44;99550.81;;;17.19
45034;BMP280;30771;47.988;-4.186;2023-05-10T13:19:10;99568.94;;;17.22
45034;BMP280;30771;47.988;-4.186;2023-05-10T13:21:35;99541.28;;;17.18
45034;BMP280;30771;47.988;-4.186;2023-05-10T13:24:03;99501.41;;;17.13
45034;BMP280;30771;47.988;-4.186;2023-05-10T13:26:29;99443.09;;;17.17
45034;BMP280;30771;47.988;-4.186;2023-05-10T13:28:55;99389.88;;;17.27
45034;BMP280;30771;47.988;-4.186;2023-05-10T13:31:20;99364.19;;;17.51
45034;BMP280;30771;47.988;-4.186;2023-05-10T13:33:45;99372.97;;;17.51
45034;BMP280;30771;47.988;-4.186;2023-05-10T13:36:10;99317.19;;;17.31
45034;BMP280;30771;47.988;-4.186;2023-05-10T13:38:36;99188.69;;;16.92
45034;BMP280;30771;47.988;-4.186;2023-05-10T13:41:01;99079.78;;;16.28
45034;BMP280;30771;47.988;-4.186;2023-05-10T13:43:26;99060.56;;;15.93
45034;BMP280;30771;47.988;-4.186;2023-05-10T13:45:51;99073.63;;;15.84
45034;BMP280;30771;47.988;-4.186;2023-05-10T13:48:17;99087.97;;;15.73
45034;BMP280;30771;47.988;-4.186;2023-05-10T13:50:42;99117.38;;;15.92
45034;BMP280;30771;47.988;-4.186;2023-05-10T13:53:08;99133.34;;;15.77
45034;BMP280;30771;47.988;-4.186;2023-05-10T13:55:33;99168.09;;;15.60
45034;BMP280;30771;47.988;-4.186;2023-05-10T13:57:58;99162.25;;;15.38
45034;BMP280;30771;47.988;-4.186;2023-05-10T14:00:24;99146.38;;;15.23
45034;BMP280;30771;47.988;-4.186;2023-05-10T14:02:49;99136.00;;;15.31
45034;BMP280;30771;47.988;-4.186;2023-05-10T14:05:14;99136.56;;;15.38
45034;BMP280;30771;47.988;-4.186;2023-05-10T14:07:40;99117.97;;;15.48
45034;BMP280;30771;47.988;-4.186;2023-05-10T14:10:05;99112.41;;;15.55
45034;BMP280;30771;47.988;-4.186;2023-05-10T14:12:31;99114.00;;;15.61
45034;BMP280;30771;47.988;-4.186;2023-05-10T14:14:56;99095.13;;;15.73
45034;BMP280;30771;47.988;-4.186;2023-05-10T14:17:21;99082.66;;;15.78
45034;BMP280;30771;47.988;-4.186;2023-05-10T14:19:46;99061.91;;;15.85
45034;BMP280;30771;47.988;-4.186;2023-05-10T14:22:12;99065.09;;;15.92
45034;BMP280;30771;47.988;-4.186;2023-05-10T14:24:37;99067.75;;;15.82
45034;BMP280;30771;47.988;-4.186;2023-05-10T14:27:03;99075.53;;;15.69
45034;BMP280;30771;47.988;-4.186;2023-05-10T14:29:28;99083.50;;;15.43
45034;BMP280;30771;47.988;-4.186;2023-05-10T14:31:53;99096.53;;;15.30
45034;BMP280;30771;47.988;-4.186;2023-05-10T14:34:19;99095.72;;;15.24
45034;BMP280;30771;47.988;-4.186;2023-05-10T14:36:44;99094.09;;;15.43
45034;BMP280;30771;47.988;-4.186;2023-05-10T14:39:09;99075.53;;;15.69
45034;BMP280;30771;47.988;-4.186;2023-05-10T14:41:34;99070.66;;;15.91
45034;BMP280;30771;47.988;-4.186;2023-05-10T14:44:00;99047.25;;;16.03
45034;BMP280;30771;47.988;-4.186;2023-05-10T14:46:25;99059.50;;;15.99
45034;BMP280;30771;47.988;-4.186;2023-05-10T14:48:50;99061.94;;;15.90
45034;BMP280;30771;47.988;-4.186;2023-05-10T14:51:15;99075.22;;;15.75
45034;BMP280;30771;47.988;-4.186;2023-05-10T14:53:41;99076.03;;;15.71
45034;BMP280;30771;47.988;-4.186;2023-05-10T14:56:06;99059.81;;;15.77
45034;BMP280;30771;47.988;-4.186;2023-05-10T14:58:31;99068.84;;;15.81
45034;BMP280;30771;47.988;-4.186;2023-05-10T15:00:57;99087.69;;;15.75
45034;BMP280;30771;47.988;-4.186;2023-05-10T15:03:22;99115.88;;;15.40
45034;BMP280;30771;47.988;-4.186;2023-05-10T15:05:47;99105.78;;;15.42
45034;BMP280;30771;47.988;-4.186;2023-05-10T15:08:13;99096.44;;;15.75
45034;BMP280;30771;47.988;-4.186;2023-05-10T15:10:39;99093.19;;;16.03
45034;BMP280;30771;47.988;-4.186;2023-05-10T15:13:04;99083.19;;;16.39
45034;BMP280;30771;47.988;-4.186;2023-05-10T15:15:29;99113.34;;;16.68
45034;BMP280;30771;47.988;-4.186;2023-05-10T15:17:55;99126.06;;;17.10
45034;BMP280;30771;47.988;-4.186;2023-05-10T15:20:20;99205.81;;;17.20
45034;BMP280;30771;47.988;-4.186;2023-05-10T15:22:45;99244.72;;;17.11
45034;BMP280;30771;47.988;-4.186;2023-05-10T15:25:11;99239.06;;;17.22
45034;BMP280;30771;47.988;-4.186;2023-05-10T15:27:36;99240.66;;;17.23
45034;BMP280;30771;47.988;-4.186;2023-05-10T15:30:01;99225.34;;;17.39
45034;BMP280;30771;47.988;-4.186;2023-05-10T15:32:27;99285.50;;;17.40
45034;BMP280;30771;47.988;-4.186;2023-05-10T15:34:52;99296.19;;;17.68
45034;BMP280;30771;47.988;-4.186;2023-05-10T15:37:17;99323.94;;;17.62
45034;BMP280;30771;47.988;-4.186;2023-05-10T15:39:43;99341.59;;;17.43
45034;BMP280;30771;47.988;-4.186;2023-05-10T15:42:08;99288.97;;;17.40
45034;BMP280;30771;47.988;-4.186;2023-05-10T15:44:34;99279.38;;;17.39
45034;BMP280;30771;47.988;-4.186;2023-05-10T15:46:59;99367.31;;;17.04
45034;BMP280;30771;47.988;-4.186;2023-05-10T15:49:24;99352.53;;;16.78
45034;BMP280;30771;47.988;-4.186;2023-05-10T15:51:49;99294.69;;;16.35
45034;BMP280;30771;47.988;-4.186;2023-05-10T15:54:15;99210.25;;;16.02
45034;BMP280;30771;47.988;-4.186;2023-05-10T15:56:40;99179.00;;;15.79
45034;BMP280;30771;47.988;-4.186;2023-05-10T15:59:05;99140.25;;;15.57
45034;BMP280;30771;47.988;-4.186;2023-05-10T16:01:31;99115.06;;;15.55
45034;BMP280;30771;47.988;-4.186;2023-05-10T16:03:56;99078.72;;;15.55
45034;BMP280;30771;47.988;-4.186;2023-05-10T16:06:21;99055.09;;;15.59
45034;BMP280;30771;47.988;-4.186;2023-05-10T16:08:47;99042.34;;;15.66
45034;BMP280;30771;47.988;-4.186;2023-05-10T16:11:13;99032.28;;;15.63
45034;BMP280;30771;47.988;-4.186;2023-05-10T16:13:38;99048.72;;;15.60
45034;BMP280;30771;47.988;-4.186;2023-05-10T16:16:03;99041.00;;;15.79
45034;BMP280;30771;47.988;-4.186;2023-05-10T16:18:29;99053.41;;;15.93
45034;BMP280;30771;47.988;-4.186;2023-05-10T16:20:54;99070.69;;;15.81
45034;BMP280;30771;47.988;-4.186;2023-05-10T16:23:20;99084.28;;;15.64
45034;BMP280;30771;47.988;-4.186;2023-05-10T16:25:45;99108.97;;;15.59
45034;BMP280;30771;47.988;-4.186;2023-05-10T16:28:10;99127.00;;;15.63
45034;BMP280;30771;47.988;-4.186;2023-05-10T16:30:36;99147.69;;;15.71
45034;BMP280;30771;47.988;-4.186;2023-05-10T16:33:02;99183.78;;;15.72
45034;BMP280;30771;47.988;-4.186;2023-05-10T16:35:27;99217.75;;;15.59
45034;BMP280;30771;47.988;-4.186;2023-05-10T16:37:53;99213.22;;;15.60
45034;BMP280;30771;47.988;-4.186;2023-05-10T16:40:18;99210.56;;;15.55
45034;BMP280;30771;47.988;-4.186;2023-05-10T16:42:44;99190.13;;;15.50
45034;BMP280;30771;47.988;-4.186;2023-05-10T16:45:09;99173.69;;;15.53
45034;BMP280;30771;47.988;-4.186;2023-05-10T16:47:37;99148.22;;;15.57
45034;BMP280;30771;47.988;-4.186;2023-05-10T16:50:03;99125.94;;;15.79
45034;BMP280;30771;47.988;-4.186;2023-05-10T16:52:30;99141.22;;;16.02
45034;BMP280;30771;47.988;-4.186;2023-05-10T16:54:55;99154.78;;;16.15
45034;BMP280;30771;47.988;-4.186;2023-05-10T16:57:21;99147.63;;;16.11
45034;BMP280;30771;47.988;-4.186;2023-05-10T16:59:46;99152.38;;;16.09
45034;BMP280;30771;47.988;-4.186;2023-05-10T17:02:14;99153.22;;;15.89
45034;BMP280;30771;47.988;-4.186;2023-05-10T17:04:41;99160.44;;;15.79
45034;BMP280;30771;47.988;-4.186;2023-05-10T17:07:06;99155.41;;;15.57
45034;BMP280;30771;47.988;-4.186;2023-05-10T17:09:32;99128.06;;;15.36
45034;BMP280;30771;47.988;-4.186;2023-05-10T17:11:57;99110.03;;;15.13
45034;BMP280;30771;47.988;-4.186;2023-05-10T17:14:22;99103.66;;;15.04
45034;BMP280;30771;47.988;-4.186;2023-05-10T17:16:47;99107.91;;;14.95
45034;BMP280;30771;47.988;-4.186;2023-05-10T17:19:13;99114.75;;;14.76
45034;BMP280;30771;47.988;-4.186;2023-05-10T17:21:38;99103.84;;;14.63
45034;BMP280;30771;47.988;-4.186;2023-05-10T17:24:04;99106.78;;;14.66
45034;BMP280;30771;47.988;-4.186;2023-05-10T17:26:29;99103.28;;;14.56
45034;BMP280;30771;47.988;-4.186;2023-05-10T17:28:54;99109.34;;;14.46
45034;BMP280;30771;47.988;-4.186;2023-05-10T17:31:20;99111.69;;;14.43
45034;BMP280;30771;47.988;-4.186;2023-05-10T17:33:45;99125.22;;;14.41
45034;BMP280;30771;47.988;-4.186;2023-05-10T17:36:10;99120.91;;;14.30
45034;BMP280;30771;47.988;-4.186;2023-05-10T17:38:36;99133.09;;;14.26
45034;BMP280;30771;47.988;-4.186;2023-05-10T17:41:01;99124.31;;;14.20
45034;BMP280;30771;47.988;-4.186;2023-05-10T17:43:26;99109.16;;;14.11
45034;BMP280;30771;47.988;-4.186;2023-05-10T17:45:55;99120.06;;;14.14
45034;BMP280;30771;47.988;-4.186;2023-05-10T17:48:20;99124.56;;;14.14
45034;BMP280;30771;47.988;-4.186;2023-05-10T17:50:45;99111.00;;;14.10
45034;BMP280;30771;47.988;-4.186;2023-05-10T17:53:10;99111.53;;;14.02
45034;BMP280;30771;47.988;-4.186;2023-05-10T17:55:39;99113.91;;;14.04
45034;BMP280;30771;47.988;-4.186;2023-05-10T17:58:04;99121.06;;;14.03
45034;BMP280;30771;47.988;-4.186;2023-05-10T18:00:30;99123.38;;;13.90
45034;BMP280;30771;47.988;-4.186;2023-05-10T18:02:55;99135.22;;;13.82
45034;BMP280;30771;47.988;-4.186;2023-05-10T18:05:20;99139.13;;;13.75
45034;BMP280;30771;47.988;-4.186;2023-05-10T18:07:46;99151.53;;;13.74
45034;BMP280;30771;47.988;-4.186;2023-05-10T18:10:11;99156.34;;;13.77
45034;BMP280;30771;47.988;-4.186;2023-05-10T18:12:36;99149.22;;;13.78
45034;BMP280;30771;47.988;-4.186;2023-05-10T18:15:02;99142.28;;;13.72
45034;BMP280;30771;47.988;-4.186;2023-05-10T18:17:27;99148.28;;;13.62
45034;BMP280;30771;47.988;-4.186;2023-05-10T18:19:52;99163.34;;;13.62
45034;BMP280;30771;47.988;-4.186;2023-05-10T18:22:18;99162.50;;;13.56
45034;BMP280;30771;47.988;-4.186;2023-05-10T18:24:43;99177.09;;;13.59
45034;BMP280;30771;47.988;-4.186;2023-05-10T18:27:08;99185.47;;;13.51
45034;BMP280;30771;47.988;-4.186;2023-05-10T18:29:34;99224.31;;;13.23
45034;BMP280;30771;47.988;-4.186;2023-05-10T18:31:59;99236.16;;;12.94
45034;BMP280;30771;47.988;-4.186;2023-05-10T18:34:24;99274.22;;;12.77
45034;BMP280;30771;47.988;-4.186;2023-05-10T18:36:50;99301.75;;;12.64
45034;BMP280;30771;47.988;-4.186;2023-05-10T18:39:15;99327.88;;;12.61
45034;BMP280;30771;47.988;-4.186;2023-05-10T18:41:41;99349.28;;;12.64
45034;BMP280;30771;47.988;-4.186;2023-05-10T18:44:06;99329.13;;;12.58
45034;BMP280;30771;47.988;-4.186;2023-05-10T18:46:31;99354.47;;;12.59
45034;BMP280;30771;47.988;-4.186;2023-05-10T18:48:56;99359.84;;;12.48
45034;BMP280;30771;47.988;-4.186;2023-05-10T18:51:22;99368.88;;;12.52
45034;BMP280;30771;47.988;-4.186;2023-05-10T18:53:47;99368.75;;;12.58
45034;BMP280;30771;47.988;-4.186;2023-05-10T18:56:13;99368.88;;;12.52
45034;BMP280;30771;47.988;-4.186;2023-05-10T18:58:38;99377.84;;;12.51
45034;BMP280;30771;47.988;-4.186;2023-05-10T19:01:03;99371.22;;;12.48
45034;BMP280;30771;47.988;-4.186;2023-05-10T19:03:29;99374.66;;;12.49
45034;BMP280;30771;47.988;-4.186;2023-05-10T19:05:54;99381.88;;;12.53
45034;BMP280;30771;47.988;-4.186;2023-05-10T19:08:19;99374.06;;;12.47
45034;BMP280;30771;47.988;-4.186;2023-05-10T19:10:45;99369.03;;;12.45
45034;BMP280;30771;47.988;-4.186;2023-05-10T19:13:10;99386.25;;;12.48
45034;BMP280;30771;47.988;-4.186;2023-05-10T19:15:35;99384.00;;;12.40
45034;BMP280;30771;47.988;-4.186;2023-05-10T19:18:01;99385.03;;;12.39
45034;BMP280;30771;47.988;-4.186;2023-05-10T19:20:26;99387.81;;;12.32
45034;BMP280;30771;47.988;-4.186;2023-05-10T19:22:52;99394.16;;;12.31
45034;BMP280;30771;47.988;-4.186;2023-05-10T19:25:17;99403.34;;;12.29
45034;BMP280;30771;47.988;-4.186;2023-05-10T19:27:42;99404.63;;;12.26
45034;BMP280;30771;47.988;-4.186;2023-05-10T19:30:08;99396.78;;;12.31
45034;BMP280;30771;47.988;-4.186;2023-05-10T19:32:34;99401.50;;;12.29
45034;BMP280;30771;47.988;-4.186;2023-05-10T19:34:59;99417.91;;;12.31
45034;BMP280;30771;47.988;-4.186;2023-05-10T19:37:24;99403.47;;;12.22
45034;BMP280;30771;47.988;-4.186;2023-05-10T19:39:50;99422.28;;;12.26
45034;BMP280;30771;47.988;-4.186;2023-05-10T19:42:15;99436.75;;;12.23
45034;BMP280;30771;47.988;-4.186;2023-05-10T19:44:40;99435.72;;;12.24
45034;BMP280;30771;47.988;-4.186;2023-05-10T19:47:06;99444.66;;;12.23
45034;BMP280;30771;47.988;-4.186;2023-05-10T19:49:31;99439.84;;;12.20
45034;BMP280;30771;47.988;-4.186;2023-05-10T19:51:56;99430.34;;;12.19
45034;BMP280;30771;47.988;-4.186;2023-05-10T19:54:21;99439.28;;;12.18
45034;BMP280;30771;47.988;-4.186;2023-05-10T19:56:47;99438.59;;;12.23
45034;BMP280;30771;47.988;-4.186;2023-05-10T19:59:12;99448.09;;;12.24